sensor_id;sensor_type;location;lat;lon;timestamp;temperature;humidity
45115;DHT22;30877;43.706;10.780;2022-12-18T00:01:39;9.90;96.70
45115;DHT22;30877;43.706;10.780;2022-12-18T00:04:18;9.90;96.70
45115;DHT22;30877;43.706;10.780;2022-12-18T00:06:49;10.00;96.70
45115;DHT22;30877;43.706;10.780;2022-12-18T00:09:20;10.00;96.70
45115;DHT22;30877;43.706;10.780;2022-12-18T00:11:52;10.10;96.70
45115;DHT22;30877;43.706;10.780;2022-12-18T00:14:23;10.10;96.70
45115;DHT22;30877;43.706;10.780;2022-12-18T00:16:51;10.00;96.70
45115;DHT22;30877;43.706;10.780;2022-12-18T00:19:19;9.90;96.70
45115;DHT22;30877;43.706;10.780;2022-12-18T00:21:47;9.70;96.70
45115;DHT22;30877;43.706;10.780;2022-12-18T00:24:16;9.70;96.70
45115;DHT22;30877;43.706;10.780;2022-12-18T00:26:47;9.60;96.70
45115;DHT22;30877;43.706;10.780;2022-12-18T00:29:15;9.70;96.70
45115;DHT22;30877;43.706;10.780;2022-12-18T00:31:43;9.70;96.70
45115;DHT22;30877;43.706;10.780;2022-12-18T00:34:12;9.70;96.70
45115;DHT22;30877;43.706;10.780;2022-12-18T00:36:41;9.70;96.70
45115;DHT22;30877;43.706;10.780;2022-12-18T00:39:10;9.70;96.70
45115;DHT22;30877;43.706;10.780;2022-12-18T00:41:55;9.80;96.70
45115;DHT22;30877;43.706;10.780;2022-12-18T00:44:42;9.70;96.70
45115;DHT22;30877;43.706;10.780;2022-12-18T00:47:10;9.60;96.70
45115;DHT22;30877;43.706;10.780;2022-12-18T00:49:38;9.50;96.70
45115;DHT22;30877;43.706;10.780;2022-12-18T00:52:06;9.50;96.70
45115;DHT22;30877;43.706;10.780;2022-12-18T00:54:35;9.50;96.70
45115;DHT22;30877;43.706;10.780;2022-12-18T00:57:04;9.50;96.70
45115;DHT22;30877;43.706;10.780;2022-12-18T00:59:32;9.50;96.70
45115;DHT22;30877;43.706;10.780;2022-12-18T01:02:00;9.60;96.70
45115;DHT22;30877;43.706;10.780;2022-12-18T01:04:32;9.60;96.70
45115;DHT22;30877;43.706;10.780;2022-12-18T01:07:01;9.60;96.70
45115;DHT22;30877;43.706;10.780;2022-12-18T01:09:29;9.60;96.70
45115;DHT22;30877;43.706;10.780;2022-12-18T01:11:57;9.60;96.70
45115;DHT22;30877;43.706;10.780;2022-12-18T01:14:26;9.70;96.70
45115;DHT22;30877;43.706;10.780;2022-12-18T01:16:55;9.70;96.70
45115;DHT22;30877;43.706;10.780;2022-12-18T01:19:23;9.70;96.70
45115;DHT22;30877;43.706;10.780;2022-12-18T01:21:51;9.70;96.70
45115;DHT22;30877;43.706;10.780;2022-12-18T01:24:19;9.70;96.70
45115;DHT22;30877;43.706;10.780;2022-12-18T01:26:48;9.70;96.70
45115;DHT22;30877;43.706;10.780;2022-12-18T01:29:16;9.70;96.70
45115;DHT22;30877;43.706;10.780;2022-12-18T01:31:46;9.70;96.70
45115;DHT22;30877;43.706;10.780;2022-12-18T01:34:14;9.70;96.70
45115;DHT22;30877;43.706;10.780;2022-12-18T01:36:42;9.70;96.70
45115;DHT22;30877;43.706;10.780;2022-12-18T01:39:12;9.70;96.70
45115;DHT22;30877;43.706;10.780;2022-12-18T01:41:41;9.70;96.70
45115;DHT22;30877;43.706;10.780;2022-12-18T01:47:50;9.60;96.70
45115;DHT22;30877;43.706;10.780;2022-12-18T01:50:21;9.60;96.70
45115;DHT22;30877;43.706;10.780;2022-12-18T01:52:51;9.60;96.70
45115;DHT22;30877;43.706;10.780;2022-12-18T01:55:24;9.60;96.70
45115;DHT22;30877;43.706;10.780;2022-12-18T01:57:54;9.60;96.70
45115;DHT22;30877;43.706;10.780;2022-12-18T02:00:24;9.60;96.70
45115;DHT22;30877;43.706;10.780;2022-12-18T02:02:54;9.50;96.70
45115;DHT22;30877;43.706;10.780;2022-12-18T02:05:32;9.40;96.70
45115;DHT22;30877;43.706;10.780;2022-12-18T02:08:09;9.40;96.70
45115;DHT22;30877;43.706;10.780;2022-12-18T02:10:45;9.40;96.70
45115;DHT22;30877;43.706;10.780;2022-12-18T02:13:20;9.30;96.70
45115;DHT22;30877;43.706;10.780;2022-12-18T02:15:57;9.30;96.70
45115;DHT22;30877;43.706;10.780;2022-12-18T02:18:33;9.30;96.70
45115;DHT22;30877;43.706;10.780;2022-12-18T02:21:11;9.30;96.70
45115;DHT22;30877;43.706;10.780;2022-12-18T02:23:54;9.30;96.70
45115;DHT22;30877;43.706;10.780;2022-12-18T02:26:30;9.30;96.70
45115;DHT22;30877;43.706;10.780;2022-12-18T02:29:02;9.30;96.70
45115;DHT22;30877;43.706;10.780;2022-12-18T02:31:36;9.40;96.70
45115;DHT22;30877;43.706;10.780;2022-12-18T02:34:07;9.40;96.70
45115;DHT22;30877;43.706;10.780;2022-12-18T02:36:40;9.40;96.70
45115;DHT22;30877;43.706;10.780;2022-12-18T02:39:12;9.40;96.70
45115;DHT22;30877;43.706;10.780;2022-12-18T02:41:56;9.40;96.70
45115;DHT22;30877;43.706;10.780;2022-12-18T02:44:29;9.40;96.70
45115;DHT22;30877;43.706;10.780;2022-12-18T02:46:58;9.40;96.70
45115;DHT22;30877;43.706;10.780;2022-12-18T02:49:33;9.50;96.70
45115;DHT22;30877;43.706;10.780;2022-12-18T02:52:07;9.50;96.70
45115;DHT22;30877;43.706;10.780;2022-12-18T02:54:49;9.50;96.70
45115;DHT22;30877;43.706;10.780;2022-12-18T02:57:27;9.50;96.70
45115;DHT22;30877;43.706;10.780;2022-12-18T03:00:03;9.50;96.70
45115;DHT22;30877;43.706;10.780;2022-12-18T03:02:36;9.40;96.70
45115;DHT22;30877;43.706;10.780;2022-12-18T03:05:10;9.40;96.70
45115;DHT22;30877;43.706;10.780;2022-12-18T03:07:43;9.40;96.70
45115;DHT22;30877;43.706;10.780;2022-12-18T03:10:18;9.30;96.70
45115;DHT22;30877;43.706;10.780;2022-12-18T03:12:52;9.30;96.70
45115;DHT22;30877;43.706;10.780;2022-12-18T03:15:24;9.20;96.70
45115;DHT22;30877;43.706;10.780;2022-12-18T03:18:06;9.20;96.70
45115;DHT22;30877;43.706;10.780;2022-12-18T03:20:35;9.20;96.70
45115;DHT22;30877;43.706;10.780;2022-12-18T03:23:08;9.20;96.70
45115;DHT22;30877;43.706;10.780;2022-12-18T03:25:39;9.20;96.70
45115;DHT22;30877;43.706;10.780;2022-12-18T03:28:13;9.30;96.70
45115;DHT22;30877;43.706;10.780;2022-12-18T03:30:44;9.30;96.70
45115;DHT22;30877;43.706;10.780;2022-12-18T03:33:17;9.20;96.70
45115;DHT22;30877;43.706;10.780;2022-12-18T03:35:49;9.20;96.70
45115;DHT22;30877;43.706;10.780;2022-12-18T03:38:18;9.20;96.70
45115;DHT22;30877;43.706;10.780;2022-12-18T03:40:58;9.20;96.70
45115;DHT22;30877;43.706;10.780;2022-12-18T03:43:39;9.20;96.70
45115;DHT22;30877;43.706;10.780;2022-12-18T03:46:17;9.20;96.70
45115;DHT22;30877;43.706;10.780;2022-12-18T03:48:52;9.20;96.70
45115;DHT22;30877;43.706;10.780;2022-12-18T03:51:28;9.20;96.70
45115;DHT22;30877;43.706;10.780;2022-12-18T03:54:00;9.20;96.70
45115;DHT22;30877;43.706;10.780;2022-12-18T03:56:35;9.20;96.70
45115;DHT22;30877;43.706;10.780;2022-12-18T03:59:08;9.10;96.70
45115;DHT22;30877;43.706;10.780;2022-12-18T04:01:41;9.10;96.70
45115;DHT22;30877;43.706;10.780;2022-12-18T04:04:13;9.10;96.70
45115;DHT22;30877;43.706;10.780;2022-12-18T04:06:44;9.10;96.70
45115;DHT22;30877;43.706;10.780;2022-12-18T04:09:14;9.10;96.70
45115;DHT22;30877;43.706;10.780;2022-12-18T04:11:46;9.20;96.70
45115;DHT22;30877;43.706;10.780;2022-12-18T04:14:17;9.10;96.70
45115;DHT22;30877;43.706;10.780;2022-12-18T04:16:50;9.10;96.70
45115;DHT22;30877;43.706;10.780;2022-12-18T04:19:23;9.10;96.70
45115;DHT22;30877;43.706;10.780;2022-12-18T04:21:52;9.00;96.70
45115;DHT22;30877;43.706;10.780;2022-12-18T04:24:21;9.10;96.70
45115;DHT22;30877;43.706;10.780;2022-12-18T04:27:08;9.10;96.70
45115;DHT22;30877;43.706;10.780;2022-12-18T04:29:45;9.00;96.70
45115;DHT22;30877;43.706;10.780;2022-12-18T04:32:15;9.00;96.70
45115;DHT22;30877;43.706;10.780;2022-12-18T04:34:44;9.00;96.70
45115;DHT22;30877;43.706;10.780;2022-12-18T04:37:12;9.00;96.70
45115;DHT22;30877;43.706;10.780;2022-12-18T04:39:42;9.00;96.70
45115;DHT22;30877;43.706;10.780;2022-12-18T04:42:18;9.00;96.70
45115;DHT22;30877;43.706;10.780;2022-12-18T04:44:48;9.00;96.70
45115;DHT22;30877;43.706;10.780;2022-12-18T04:47:16;9.00;96.70
45115;DHT22;30877;43.706;10.780;2022-12-18T04:49:44;8.90;96.70
45115;DHT22;30877;43.706;10.780;2022-12-18T04:52:12;8.90;96.70
45115;DHT22;30877;43.706;10.780;2022-12-18T04:54:41;8.90;96.70
45115;DHT22;30877;43.706;10.780;2022-12-18T04:57:09;8.80;96.70
45115;DHT22;30877;43.706;10.780;2022-12-18T04:59:37;8.70;96.70
45115;DHT22;30877;43.706;10.780;2022-12-18T05:02:06;8.70;96.70
45115;DHT22;30877;43.706;10.780;2022-12-18T05:04:35;8.80;96.70
45115;DHT22;30877;43.706;10.780;2022-12-18T05:07:03;8.80;96.70
45115;DHT22;30877;43.706;10.780;2022-12-18T05:09:34;8.80;96.70
45115;DHT22;30877;43.706;10.780;2022-12-18T05:12:02;8.70;96.70
45115;DHT22;30877;43.706;10.780;2022-12-18T05:14:30;8.60;96.70
45115;DHT22;30877;43.706;10.780;2022-12-18T05:16:58;8.70;96.70
45115;DHT22;30877;43.706;10.780;2022-12-18T05:19:29;8.70;96.70
45115;DHT22;30877;43.706;10.780;2022-12-18T05:21:57;8.70;96.70
45115;DHT22;30877;43.706;10.780;2022-12-18T05:24:25;8.70;96.70
45115;DHT22;30877;43.706;10.780;2022-12-18T05:26:53;8.70;96.70
45115;DHT22;30877;43.706;10.780;2022-12-18T05:29:21;8.70;96.70
45115;DHT22;30877;43.706;10.780;2022-12-18T05:31:49;8.60;96.70
45115;DHT22;30877;43.706;10.780;2022-12-18T05:34:18;8.60;96.70
45115;DHT22;30877;43.706;10.780;2022-12-18T05:36:47;8.60;96.70
45115;DHT22;30877;43.706;10.780;2022-12-18T05:39:15;8.60;96.70
45115;DHT22;30877;43.706;10.780;2022-12-18T05:41:44;8.60;96.70
45115;DHT22;30877;43.706;10.780;2022-12-18T05:44:12;8.50;96.70
45115;DHT22;30877;43.706;10.780;2022-12-18T05:46:43;8.60;96.70
45115;DHT22;30877;43.706;10.780;2022-12-18T05:49:11;8.60;96.70
45115;DHT22;30877;43.706;10.780;2022-12-18T05:51:39;8.50;96.70
45115;DHT22;30877;43.706;10.780;2022-12-18T05:54:09;8.50;96.70
45115;DHT22;30877;43.706;10.780;2022-12-18T05:56:37;8.50;96.70
45115;DHT22;30877;43.706;10.780;2022-12-18T05:59:12;8.50;96.70
45115;DHT22;30877;43.706;10.780;2022-12-18T06:01:40;8.50;96.70
45115;DHT22;30877;43.706;10.780;2022-12-18T06:04:09;8.50;96.70
45115;DHT22;30877;43.706;10.780;2022-12-18T06:06:37;8.50;96.70
45115;DHT22;30877;43.706;10.780;2022-12-18T06:09:07;8.50;96.70
45115;DHT22;30877;43.706;10.780;2022-12-18T06:11:38;8.50;96.70
45115;DHT22;30877;43.706;10.780;2022-12-18T06:14:07;8.50;96.70
45115;DHT22;30877;43.706;10.780;2022-12-18T06:16:35;8.60;96.70
45115;DHT22;30877;43.706;10.780;2022-12-18T06:19:04;8.50;96.70
45115;DHT22;30877;43.706;10.780;2022-12-18T06:21:33;8.50;96.70
45115;DHT22;30877;43.706;10.780;2022-12-18T06:24:01;8.50;96.70
45115;DHT22;30877;43.706;10.780;2022-12-18T06:26:31;8.50;96.70
45115;DHT22;30877;43.706;10.780;2022-12-18T06:28:59;8.50;96.70
45115;DHT22;30877;43.706;10.780;2022-12-18T06:31:27;8.50;96.70
45115;DHT22;30877;43.706;10.780;2022-12-18T06:33:57;8.50;96.70
45115;DHT22;30877;43.706;10.780;2022-12-18T06:36:31;8.60;96.70
45115;DHT22;30877;43.706;10.780;2022-12-18T06:39:06;8.50;96.70
45115;DHT22;30877;43.706;10.780;2022-12-18T06:41:37;8.50;96.70
45115;DHT22;30877;43.706;10.780;2022-12-18T06:44:06;8.50;96.70
45115;DHT22;30877;43.706;10.780;2022-12-18T06:46:35;8.50;96.70
45115;DHT22;30877;43.706;10.780;2022-12-18T06:49:03;8.40;96.70
45115;DHT22;30877;43.706;10.780;2022-12-18T06:51:32;8.40;96.70
45115;DHT22;30877;43.706;10.780;2022-12-18T06:54:01;8.40;96.70
45115;DHT22;30877;43.706;10.780;2022-12-18T06:56:29;8.40;96.70
45115;DHT22;30877;43.706;10.780;2022-12-18T06:59:00;8.30;96.70
45115;DHT22;30877;43.706;10.780;2022-12-18T07:01:29;8.30;96.70
45115;DHT22;30877;43.706;10.780;2022-12-18T07:03:58;8.40;96.70
45115;DHT22;30877;43.706;10.780;2022-12-18T07:06:26;8.40;96.70
45115;DHT22;30877;43.706;10.780;2022-12-18T07:08:54;8.40;96.70
45115;DHT22;30877;43.706;10.780;2022-12-18T07:11:23;8.50;96.70
45115;DHT22;30877;43.706;10.780;2022-12-18T07:13:53;8.50;96.70
45115;DHT22;30877;43.706;10.780;2022-12-18T07:16:23;8.60;96.70
45115;DHT22;30877;43.706;10.780;2022-12-18T07:18:53;8.60;96.70
45115;DHT22;30877;43.706;10.780;2022-12-18T07:21:22;8.60;96.70
45115;DHT22;30877;43.706;10.780;2022-12-18T07:23:51;8.50;96.70
45115;DHT22;30877;43.706;10.780;2022-12-18T07:26:20;8.50;96.70
45115;DHT22;30877;43.706;10.780;2022-12-18T07:28:49;8.50;96.70
45115;DHT22;30877;43.706;10.780;2022-12-18T07:31:20;8.60;96.70
45115;DHT22;30877;43.706;10.780;2022-12-18T07:33:52;8.70;96.70
45115;DHT22;30877;43.706;10.780;2022-12-18T07:36:24;8.70;96.70
45115;DHT22;30877;43.706;10.780;2022-12-18T07:38:52;8.80;96.70
45115;DHT22;30877;43.706;10.780;2022-12-18T07:41:21;8.80;96.70
45115;DHT22;30877;43.706;10.780;2022-12-18T07:43:49;8.90;96.70
45115;DHT22;30877;43.706;10.780;2022-12-18T07:46:18;8.90;96.70
45115;DHT22;30877;43.706;10.780;2022-12-18T07:48:47;8.90;96.70
45115;DHT22;30877;43.706;10.780;2022-12-18T07:51:19;8.90;96.70
45115;DHT22;30877;43.706;10.780;2022-12-18T07:53:47;9.00;96.70
45115;DHT22;30877;43.706;10.780;2022-12-18T07:56:19;8.90;96.70
45115;DHT22;30877;43.706;10.780;2022-12-18T07:58:58;8.90;96.70
45115;DHT22;30877;43.706;10.780;2022-12-18T08:01:28;8.90;96.70
45115;DHT22;30877;43.706;10.780;2022-12-18T08:03:57;8.90;96.70
45115;DHT22;30877;43.706;10.780;2022-12-18T08:06:29;9.00;96.70
45115;DHT22;30877;43.706;10.780;2022-12-18T08:09:00;9.00;96.70
45115;DHT22;30877;43.706;10.780;2022-12-18T08:11:29;9.00;96.70
45115;DHT22;30877;43.706;10.780;2022-12-18T08:13:58;9.10;96.70
45115;DHT22;30877;43.706;10.780;2022-12-18T08:16:26;9.10;96.70
45115;DHT22;30877;43.706;10.780;2022-12-18T08:18:55;9.10;96.70
45115;DHT22;30877;43.706;10.780;2022-12-18T08:21:26;9.20;96.70
45115;DHT22;30877;43.706;10.780;2022-12-18T08:23:57;9.20;96.70
45115;DHT22;30877;43.706;10.780;2022-12-18T08:26:30;9.30;96.70
45115;DHT22;30877;43.706;10.780;2022-12-18T08:28:59;9.40;96.70
45115;DHT22;30877;43.706;10.780;2022-12-18T08:31:28;9.40;96.70
45115;DHT22;30877;43.706;10.780;2022-12-18T08:33:57;9.60;96.70
45115;DHT22;30877;43.706;10.780;2022-12-18T08:36:25;9.60;96.70
45115;DHT22;30877;43.706;10.780;2022-12-18T08:38:56;9.70;96.70
45115;DHT22;30877;43.706;10.780;2022-12-18T08:41:25;9.70;96.70
45115;DHT22;30877;43.706;10.780;2022-12-18T08:43:53;9.90;96.70
45115;DHT22;30877;43.706;10.780;2022-12-18T08:46:41;10.00;96.70
45115;DHT22;30877;43.706;10.780;2022-12-18T08:49:10;10.10;96.70
45115;DHT22;30877;43.706;10.780;2022-12-18T08:51:39;10.20;96.70
45115;DHT22;30877;43.706;10.780;2022-12-18T08:54:11;10.30;96.70
45115;DHT22;30877;43.706;10.780;2022-12-18T08:56:40;10.30;96.70
45115;DHT22;30877;43.706;10.780;2022-12-18T08:59:09;10.40;96.70
45115;DHT22;30877;43.706;10.780;2022-12-18T09:01:46;10.50;96.70
45115;DHT22;30877;43.706;10.780;2022-12-18T09:04:14;10.50;96.70
45115;DHT22;30877;43.706;10.780;2022-12-18T09:06:42;10.60;96.70
45115;DHT22;30877;43.706;10.780;2022-12-18T09:09:12;10.70;96.70
45115;DHT22;30877;43.706;10.780;2022-12-18T09:11:41;10.70;96.70
45115;DHT22;30877;43.706;10.780;2022-12-18T09:14:09;10.90;96.70
45115;DHT22;30877;43.706;10.780;2022-12-18T09:16:38;10.90;96.70
45115;DHT22;30877;43.706;10.780;2022-12-18T09:19:06;10.90;96.70
45115;DHT22;30877;43.706;10.780;2022-12-18T09:21:35;11.00;96.70
45115;DHT22;30877;43.706;10.780;2022-12-18T09:24:04;11.00;96.70
45115;DHT22;30877;43.706;10.780;2022-12-18T09:26:36;11.10;96.70
45115;DHT22;30877;43.706;10.780;2022-12-18T09:29:06;11.10;96.70
45115;DHT22;30877;43.706;10.780;2022-12-18T09:31:36;11.10;96.70
45115;DHT22;30877;43.706;10.780;2022-12-18T09:34:07;11.20;96.70
45115;DHT22;30877;43.706;10.780;2022-12-18T09:36:35;11.30;96.70
45115;DHT22;30877;43.706;10.780;2022-12-18T09:39:04;11.30;96.70
45115;DHT22;30877;43.706;10.780;2022-12-18T09:41:44;11.40;96.70
45115;DHT22;30877;43.706;10.780;2022-12-18T09:44:24;11.50;96.70
45115;DHT22;30877;43.706;10.780;2022-12-18T09:47:12;11.60;96.70
45115;DHT22;30877;43.706;10.780;2022-12-18T09:49:43;11.60;96.70
45115;DHT22;30877;43.706;10.780;2022-12-18T09:52:16;11.70;96.70
45115;DHT22;30877;43.706;10.780;2022-12-18T09:54:49;11.80;96.70
45115;DHT22;30877;43.706;10.780;2022-12-18T09:57:23;11.90;96.70
45115;DHT22;30877;43.706;10.780;2022-12-18T09:59:55;12.00;96.70
45115;DHT22;30877;43.706;10.780;2022-12-18T10:02:26;12.10;96.70
45115;DHT22;30877;43.706;10.780;2022-12-18T10:05:07;12.20;96.70
45115;DHT22;30877;43.706;10.780;2022-12-18T10:07:53;12.40;96.70
45115;DHT22;30877;43.706;10.780;2022-12-18T10:10:30;12.40;96.70
45115;DHT22;30877;43.706;10.780;2022-12-18T10:13:10;12.40;96.70
45115;DHT22;30877;43.706;10.780;2022-12-18T10:15:51;12.50;96.70
45115;DHT22;30877;43.706;10.780;2022-12-18T10:18:31;12.60;96.70
45115;DHT22;30877;43.706;10.780;2022-12-18T10:21:07;12.70;96.70
45115;DHT22;30877;43.706;10.780;2022-12-18T10:23:41;12.80;96.70
45115;DHT22;30877;43.706;10.780;2022-12-18T10:26:15;12.80;96.70
45115;DHT22;30877;43.706;10.780;2022-12-18T10:28:45;12.90;96.70
45115;DHT22;30877;43.706;10.780;2022-12-18T10:31:16;12.90;96.70
45115;DHT22;30877;43.706;10.780;2022-12-18T10:33:45;13.00;96.70
45115;DHT22;30877;43.706;10.780;2022-12-18T10:36:13;13.00;96.70
45115;DHT22;30877;43.706;10.780;2022-12-18T10:38:42;13.10;96.70
45115;DHT22;30877;43.706;10.780;2022-12-18T10:41:24;13.20;96.70
45115;DHT22;30877;43.706;10.780;2022-12-18T10:44:21;13.20;96.70
45115;DHT22;30877;43.706;10.780;2022-12-18T10:46:51;13.30;96.70
45115;DHT22;30877;43.706;10.780;2022-12-18T10:49:25;13.30;96.70
45115;DHT22;30877;43.706;10.780;2022-12-18T10:52:07;13.30;96.70
45115;DHT22;30877;43.706;10.780;2022-12-18T10:54:45;13.40;96.70
45115;DHT22;30877;43.706;10.780;2022-12-18T10:57:29;13.40;96.70
45115;DHT22;30877;43.706;10.780;2022-12-18T11:00:19;13.50;96.70
45115;DHT22;30877;43.706;10.780;2022-12-18T11:02:48;13.60;96.70
45115;DHT22;30877;43.706;10.780;2022-12-18T11:05:25;13.60;96.70
45115;DHT22;30877;43.706;10.780;2022-12-18T11:07:54;13.60;96.70
45115;DHT22;30877;43.706;10.780;2022-12-18T11:10:26;13.70;96.70
45115;DHT22;30877;43.706;10.780;2022-12-18T11:12:56;13.80;96.70
45115;DHT22;30877;43.706;10.780;2022-12-18T11:15:40;13.90;96.70
45115;DHT22;30877;43.706;10.780;2022-12-18T11:18:17;14.00;96.70
45115;DHT22;30877;43.706;10.780;2022-12-18T11:20:51;14.10;96.70
45115;DHT22;30877;43.706;10.780;2022-12-18T11:23:26;14.20;96.70
45115;DHT22;30877;43.706;10.780;2022-12-18T11:25:56;14.30;96.70
45115;DHT22;30877;43.706;10.780;2022-12-18T11:28:28;14.40;96.70
45115;DHT22;30877;43.706;10.780;2022-12-18T11:31:18;14.40;96.70
45115;DHT22;30877;43.706;10.780;2022-12-18T11:34:00;14.60;96.70
45115;DHT22;30877;43.706;10.780;2022-12-18T11:36:50;14.60;96.70
45115;DHT22;30877;43.706;10.780;2022-12-18T11:39:27;14.60;96.70
45115;DHT22;30877;43.706;10.780;2022-12-18T11:42:03;14.70;96.70
45115;DHT22;30877;43.706;10.780;2022-12-18T11:44:43;14.70;96.70
45115;DHT22;30877;43.706;10.780;2022-12-18T11:47:21;14.80;96.70
45115;DHT22;30877;43.706;10.780;2022-12-18T11:49:55;15.00;96.70
45115;DHT22;30877;43.706;10.780;2022-12-18T11:52:28;15.00;96.70
45115;DHT22;30877;43.706;10.780;2022-12-18T11:55:01;15.10;96.70
45115;DHT22;30877;43.706;10.780;2022-12-18T11:57:37;15.10;96.70
45115;DHT22;30877;43.706;10.780;2022-12-18T12:00:12;15.20;96.70
45115;DHT22;30877;43.706;10.780;2022-12-18T12:03:06;15.30;96.70
45115;DHT22;30877;43.706;10.780;2022-12-18T12:05:48;15.30;96.70
45115;DHT22;30877;43.706;10.780;2022-12-18T12:08:29;15.30;96.70
45115;DHT22;30877;43.706;10.780;2022-12-18T12:11:07;15.40;96.70
45115;DHT22;30877;43.706;10.780;2022-12-18T12:13:46;15.50;96.70
45115;DHT22;30877;43.706;10.780;2022-12-18T12:16:20;15.60;96.70
45115;DHT22;30877;43.706;10.780;2022-12-18T12:18:59;15.70;96.70
45115;DHT22;30877;43.706;10.780;2022-12-18T12:21:36;15.70;96.70
45115;DHT22;30877;43.706;10.780;2022-12-18T12:24:22;15.80;96.70
45115;DHT22;30877;43.706;10.780;2022-12-18T12:27:01;16.00;96.70
45115;DHT22;30877;43.706;10.780;2022-12-18T12:29:45;16.20;96.70
45115;DHT22;30877;43.706;10.780;2022-12-18T12:32:24;16.20;96.70
45115;DHT22;30877;43.706;10.780;2022-12-18T12:35:11;16.30;96.70
45115;DHT22;30877;43.706;10.780;2022-12-18T12:37:51;16.50;96.70
45115;DHT22;30877;43.706;10.780;2022-12-18T12:40:24;16.50;96.70
45115;DHT22;30877;43.706;10.780;2022-12-18T12:43:23;16.60;96.70
45115;DHT22;30877;43.706;10.780;2022-12-18T12:45:55;16.50;96.70
45115;DHT22;30877;43.706;10.780;2022-12-18T12:48:36;16.50;96.70
45115;DHT22;30877;43.706;10.780;2022-12-18T12:51:14;16.50;96.70
45115;DHT22;30877;43.706;10.780;2022-12-18T12:53:42;16.60;96.70
45115;DHT22;30877;43.706;10.780;2022-12-18T12:56:14;16.70;96.70
45115;DHT22;30877;43.706;10.780;2022-12-18T12:58:54;16.70;96.70
45115;DHT22;30877;43.706;10.780;2022-12-18T13:01:32;16.70;96.70
45115;DHT22;30877;43.706;10.780;2022-12-18T13:04:12;16.70;96.70
45115;DHT22;30877;43.706;10.780;2022-12-18T13:06:47;16.80;96.70
45115;DHT22;30877;43.706;10.780;2022-12-18T13:09:18;16.80;96.70
45115;DHT22;30877;43.706;10.780;2022-12-18T13:11:46;16.90;96.70
45115;DHT22;30877;43.706;10.780;2022-12-18T13:14:34;16.90;96.70
45115;DHT22;30877;43.706;10.780;2022-12-18T13:20:17;16.90;96.70
45115;DHT22;30877;43.706;10.780;2022-12-18T13:22:48;16.70;96.70
45115;DHT22;30877;43.706;10.780;2022-12-18T13:25:32;16.60;96.70
45115;DHT22;30877;43.706;10.780;2022-12-18T13:28:11;16.40;96.70
45115;DHT22;30877;43.706;10.780;2022-12-18T13:30:49;16.10;96.70
45115;DHT22;30877;43.706;10.780;2022-12-18T13:33:45;16.00;96.70
45115;DHT22;30877;43.706;10.780;2022-12-18T13:36:34;15.80;96.70
45115;DHT22;30877;43.706;10.780;2022-12-18T13:39:31;15.70;96.70
45115;DHT22;30877;43.706;10.780;2022-12-18T13:42:39;15.70;96.70
45115;DHT22;30877;43.706;10.780;2022-12-18T13:45:39;15.60;96.70
45115;DHT22;30877;43.706;10.780;2022-12-18T13:48:21;15.50;96.70
45115;DHT22;30877;43.706;10.780;2022-12-18T13:50:56;15.40;96.70
45115;DHT22;30877;43.706;10.780;2022-12-18T13:53:30;15.30;96.70
45115;DHT22;30877;43.706;10.780;2022-12-18T13:56:02;15.20;96.70
45115;DHT22;30877;43.706;10.780;2022-12-18T13:58:30;15.20;96.70
45115;DHT22;30877;43.706;10.780;2022-12-18T14:00:58;15.10;96.70
45115;DHT22;30877;43.706;10.780;2022-12-18T14:03:28;15.10;96.70
45115;DHT22;30877;43.706;10.780;2022-12-18T14:06:01;15.00;96.70
45115;DHT22;30877;43.706;10.780;2022-12-18T14:08:34;15.00;96.70
45115;DHT22;30877;43.706;10.780;2022-12-18T14:11:06;15.00;96.70
45115;DHT22;30877;43.706;10.780;2022-12-18T14:13:39;14.90;96.70
45115;DHT22;30877;43.706;10.780;2022-12-18T14:16:14;14.90;96.70
45115;DHT22;30877;43.706;10.780;2022-12-18T14:18:45;14.90;96.70
45115;DHT22;30877;43.706;10.780;2022-12-18T14:21:21;14.80;96.70
45115;DHT22;30877;43.706;10.780;2022-12-18T14:24:03;14.80;96.70
45115;DHT22;30877;43.706;10.780;2022-12-18T14:26:33;14.80;96.70
45115;DHT22;30877;43.706;10.780;2022-12-18T14:29:18;14.80;96.70
45115;DHT22;30877;43.706;10.780;2022-12-18T14:32:06;14.70;96.70
45115;DHT22;30877;43.706;10.780;2022-12-18T14:34:44;14.60;96.70
45115;DHT22;30877;43.706;10.780;2022-12-18T14:37:15;14.60;96.70
45115;DHT22;30877;43.706;10.780;2022-12-18T14:39:55;14.60;96.70
45115;DHT22;30877;43.706;10.780;2022-12-18T14:42:26;14.60;96.70
45115;DHT22;30877;43.706;10.780;2022-12-18T14:48:11;14.50;96.70
45115;DHT22;30877;43.706;10.780;2022-12-18T14:50:56;14.50;96.70
45115;DHT22;30877;43.706;10.780;2022-12-18T14:53:34;14.50;96.70
45115;DHT22;30877;43.706;10.780;2022-12-18T14:56:03;14.40;96.70
45115;DHT22;30877;43.706;10.780;2022-12-18T14:58:43;14.40;96.70
45115;DHT22;30877;43.706;10.780;2022-12-18T15:01:19;14.40;96.70
45115;DHT22;30877;43.706;10.780;2022-12-18T15:03:47;14.40;96.70
45115;DHT22;30877;43.706;10.780;2022-12-18T15:06:16;14.30;96.70
45115;DHT22;30877;43.706;10.780;2022-12-18T15:08:45;14.30;96.70
45115;DHT22;30877;43.706;10.780;2022-12-18T15:11:33;14.20;96.70
45115;DHT22;30877;43.706;10.780;2022-12-18T15:14:28;14.20;96.70
45115;DHT22;30877;43.706;10.780;2022-12-18T15:16:59;14.10;96.70
45115;DHT22;30877;43.706;10.780;2022-12-18T15:19:34;14.20;96.70
45115;DHT22;30877;43.706;10.780;2022-12-18T15:22:04;14.20;96.70
45115;DHT22;30877;43.706;10.780;2022-12-18T15:24:33;14.10;96.70
45115;DHT22;30877;43.706;10.780;2022-12-18T15:27:01;14.10;96.70
45115;DHT22;30877;43.706;10.780;2022-12-18T15:29:30;14.00;96.70
45115;DHT22;30877;43.706;10.780;2022-12-18T15:32:02;14.00;96.70
45115;DHT22;30877;43.706;10.780;2022-12-18T15:34:31;14.00;96.70
45115;DHT22;30877;43.706;10.780;2022-12-18T15:37:00;14.00;96.70
45115;DHT22;30877;43.706;10.780;2022-12-18T15:39:28;13.90;96.70
45115;DHT22;30877;43.706;10.780;2022-12-18T15:41:56;13.90;96.70
45115;DHT22;30877;43.706;10.780;2022-12-18T15:44:43;13.90;96.70
45115;DHT22;30877;43.706;10.780;2022-12-18T15:47:12;13.80;96.70
45115;DHT22;30877;43.706;10.780;2022-12-18T15:49:40;13.70;96.70
45115;DHT22;30877;43.706;10.780;2022-12-18T15:52:11;13.50;96.70
45115;DHT22;30877;43.706;10.780;2022-12-18T15:54:41;13.40;96.70
45115;DHT22;30877;43.706;10.780;2022-12-18T15:57:44;13.40;96.70
45115;DHT22;30877;43.706;10.780;2022-12-18T16:00:14;13.30;96.70
45115;DHT22;30877;43.706;10.780;2022-12-18T16:02:42;13.20;96.70
45115;DHT22;30877;43.706;10.780;2022-12-18T16:05:14;13.20;96.70
45115;DHT22;30877;43.706;10.780;2022-12-18T16:07:42;13.20;96.70
45115;DHT22;30877;43.706;10.780;2022-12-18T16:10:10;13.10;96.70
45115;DHT22;30877;43.706;10.780;2022-12-18T16:12:39;13.10;96.70